createdAt,value
2022-09-14T00:01:26.605Z,48.80
2022-09-14T00:08:15.590Z,49.00
2022-09-14T00:18:32.651Z,49.20
2022-09-14T00:21:59.187Z,49.40
2022-09-14T00:25:22.590Z,49.50
2022-09-14T00:28:49.671Z,49.50
2022-09-14T00:32:13.184Z,49.60
2022-09-14T00:35:38.046Z,49.70
2022-09-14T00:42:25.385Z,49.90
2022-09-14T00:49:21.060Z,49.90
2022-09-14T00:52:50.012Z,49.90
2022-09-14T00:59:41.675Z,50.10
2022-09-14T01:03:05.248Z,50.10
2022-09-14T01:06:41.423Z,50.20
2022-09-14T01:10:23.833Z,50.30
2022-09-14T01:14:02.117Z,50.30
2022-09-14T01:17:36.575Z,50.40
2022-09-14T01:21:10.113Z,50.70
2022-09-14T01:24:46.044Z,51.20
2022-09-14T01:28:18.732Z,51.60
2022-09-14T01:31:55.196Z,51.80
2022-09-14T01:35:28.197Z,55.40
2022-09-14T01:42:23.563Z,61.50
2022-09-14T01:45:54.496Z,65.30
2022-09-14T01:49:25.254Z,67.30
2022-09-14T01:52:55.450Z,69.60
2022-09-14T01:56:25.411Z,71.20
2022-09-14T02:03:25.108Z,73.90
2022-09-14T02:10:17.590Z,76.50
2022-09-14T02:20:40.408Z,79.20
2022-09-14T02:31:04.984Z,81.10
2022-09-14T02:38:14.693Z,82.30
2022-09-14T02:45:24.055Z,83.80
2022-09-14T02:48:56.929Z,84.60
2022-09-14T02:52:32.117Z,85.10
2022-09-14T02:56:02.333Z,85.30
2022-09-14T03:06:13.375Z,87.10
2022-09-14T03:13:02.337Z,87.80
2022-09-14T03:16:26.207Z,87.90
2022-09-14T03:19:49.814Z,88.20
2022-09-14T03:23:14.648Z,88.80
2022-09-14T03:30:06.296Z,89.40
2022-09-14T03:33:29.802Z,89.50
2022-09-14T03:43:46.534Z,89.50
2022-09-14T03:47:11.448Z,89.50
2022-09-14T04:07:37.384Z,91.10
2022-09-14T04:14:25.716Z,91.40
2022-09-14T04:17:49.656Z,91.50
2022-09-14T04:21:17.345Z,91.80
2022-09-14T04:59:05.748Z,91.60
2022-09-14T05:09:19.710Z,91.50
2022-09-14T05:12:44.560Z,91.60
2022-09-14T05:16:08.867Z,91.70
2022-09-14T05:29:45.831Z,92.30
2022-09-14T05:46:47.496Z,92.60
2022-09-14T05:53:35.490Z,93.00
2022-09-14T06:00:23.067Z,93.30
2022-09-14T06:03:49.668Z,93.50
2022-09-14T06:07:18.713Z,93.70
2022-09-14T06:10:42.772Z,93.90
2022-09-14T06:24:20.059Z,95.40
2022-09-14T06:31:13.580Z,95.90
2022-09-14T06:38:02.623Z,95.70
2022-09-14T06:41:30.471Z,95.80
2022-09-14T06:44:54.027Z,95.90
2022-09-14T06:51:44.984Z,95.20
2022-09-14T06:55:10.450Z,95.00
2022-09-14T06:58:34.538Z,94.90
2022-09-14T07:12:11.616Z,95.20
2022-09-14T07:19:03.082Z,96.80
2022-09-14T07:26:01.836Z,99.20
2022-09-14T07:29:26.695Z,98.80
2022-09-14T07:36:15.716Z,95.10
2022-09-14T07:39:39.364Z,95.80
2022-09-14T07:46:30.146Z,97.30
2022-09-14T07:49:53.663Z,99.50
2022-09-14T07:56:42.667Z,99.90
2022-09-14T08:00:08.582Z,99.90
2022-09-14T08:03:37.284Z,99.90
2022-09-14T08:10:27.133Z,94.30
2022-09-14T08:13:54.372Z,99.30
2022-09-14T08:17:17.859Z,95.50
2022-09-14T08:20:42.617Z,92.30
2022-09-14T08:24:06.500Z,90.30
2022-09-14T08:27:29.949Z,90.20
2022-09-14T08:30:53.740Z,86.60
2022-09-14T08:34:18.511Z,87.60
2022-09-14T08:37:43.345Z,86.70
2022-09-14T08:41:24.092Z,86.80
2022-09-14T08:44:54.599Z,85.10
2022-09-14T08:48:24.869Z,84.40
2022-09-14T08:55:31.078Z,91.70
2022-09-14T08:59:17.062Z,94.20
2022-09-14T09:03:22.581Z,96.20
2022-09-14T09:06:58.566Z,94.40
2022-09-14T09:10:27.007Z,94.00
2022-09-14T09:13:54.059Z,92.30
2022-09-14T09:17:24.106Z,90.40
2022-09-14T09:20:52.839Z,90.90
2022-09-14T09:24:29.256Z,91.40
2022-09-14T09:28:02.483Z,89.10
2022-09-14T09:31:34.109Z,79.60
2022-09-14T09:35:23.218Z,85.80
2022-09-14T09:38:52.525Z,86.50
2022-09-14T09:42:23.015Z,88.00
2022-09-14T09:45:56.440Z,86.20
2022-09-14T09:49:23.751Z,77.00
2022-09-14T09:52:52.954Z,73.40
2022-09-14T09:56:23.899Z,74.40
2022-09-14T09:59:48.502Z,76.30
2022-09-14T10:03:33.418Z,78.10
2022-09-14T10:06:58.492Z,73.50
2022-09-14T10:10:28.026Z,74.20
2022-09-14T10:13:51.569Z,74.50
2022-09-14T10:17:20.601Z,76.20
2022-09-14T10:21:06.856Z,73.20
2022-09-14T10:24:30.409Z,68.00
2022-09-14T10:28:01.547Z,71.70
2022-09-14T10:31:32.256Z,70.70
2022-09-14T10:34:55.762Z,70.10
2022-09-14T10:38:32.978Z,70.40
2022-09-14T10:42:05.868Z,67.90
2022-09-14T10:45:35.899Z,70.90
2022-09-14T10:49:24.786Z,70.90
2022-09-14T10:53:04.963Z,69.90
2022-09-14T10:56:44.602Z,69.70
2022-09-14T11:00:14.705Z,70.00
2022-09-14T11:04:00.728Z,71.40
2022-09-14T11:07:35.927Z,71.60
2022-09-14T11:11:34.156Z,72.00
2022-09-14T11:15:19.058Z,74.30
2022-09-14T11:18:59.615Z,74.10
2022-09-14T11:22:36.485Z,76.90
2022-09-14T11:26:07.853Z,75.00
2022-09-14T11:29:39.120Z,74.20
2022-09-14T11:33:12.549Z,75.70
2022-09-14T11:36:44.493Z,73.60
2022-09-14T11:40:20.867Z,72.80
2022-09-14T11:43:51.592Z,73.50
2022-09-14T11:47:20.403Z,72.10
2022-09-14T11:50:47.452Z,68.90
2022-09-14T11:54:16.781Z,69.40
2022-09-14T11:57:40.458Z,65.40
2022-09-14T12:01:27.069Z,62.80
2022-09-14T12:05:40.730Z,60.90
2022-09-14T12:09:44.696Z,58.50
2022-09-14T12:13:21.678Z,59.20
2022-09-14T12:17:38.816Z,58.60
2022-09-14T12:21:08.079Z,59.80
2022-09-14T12:24:40.902Z,61.00
2022-09-14T12:28:30.314Z,60.40
2022-09-14T12:32:05.966Z,60.60
2022-09-14T12:35:47.984Z,60.10
2022-09-14T12:39:24.475Z,61.10
2022-09-14T12:42:47.996Z,60.80
2022-09-14T12:46:33.617Z,61.30
2022-09-14T12:50:00.488Z,59.80
2022-09-14T12:53:33.394Z,60.40
2022-09-14T12:57:16.166Z,60.70
2022-09-14T13:00:59.928Z,61.20
2022-09-14T13:04:29.151Z,62.40
2022-09-14T13:11:30.321Z,65.40
2022-09-14T13:18:33.233Z,68.10
2022-09-14T13:22:00.850Z,69.10
2022-09-14T13:29:02.492Z,70.70
2022-09-14T13:35:56.591Z,72.70
2022-09-14T13:39:30.400Z,73.70
2022-09-14T13:46:20.509Z,75.50
2022-09-14T13:50:08.380Z,75.90
2022-09-14T13:53:42.176Z,76.00
2022-09-14T13:57:19.315Z,76.20
2022-09-14T14:01:05.388Z,76.50
2022-09-14T14:04:38.411Z,76.50
2022-09-14T14:08:05.542Z,76.40
2022-09-14T14:11:38.509Z,76.70
2022-09-14T14:15:09.479Z,77.10
2022-09-14T14:18:54.239Z,77.40
2022-09-14T14:22:21.402Z,77.90
2022-09-14T14:25:54.382Z,78.20
2022-09-14T14:29:18.856Z,77.90
2022-09-14T14:32:44.406Z,78.10
2022-09-14T14:36:10.915Z,77.90
2022-09-14T14:43:03.517Z,77.80
2022-09-14T14:46:27.535Z,77.80
2022-09-14T14:49:53.361Z,77.60
2022-09-14T14:53:17.049Z,77.30
2022-09-14T15:00:16.059Z,76.50
2022-09-14T15:07:05.771Z,75.30
2022-09-14T15:24:08.794Z,75.90
2022-09-14T15:37:50.108Z,77.40
2022-09-14T15:41:15.131Z,78.30
2022-09-14T15:58:16.630Z,77.80
2022-09-14T16:01:40.316Z,77.80
2022-09-14T16:15:17.474Z,77.50
2022-09-14T16:18:41.974Z,77.30
2022-09-14T16:32:23.624Z,77.00
2022-09-14T16:39:15.788Z,77.90
2022-09-14T16:46:07.224Z,79.00
2022-09-14T16:49:32.192Z,79.10
2022-09-14T16:56:22.948Z,78.90
2022-09-14T16:59:46.770Z,79.10
2022-09-14T17:03:10.237Z,79.00
2022-09-14T17:09:59.658Z,78.50
2022-09-14T17:20:11.700Z,78.20
2022-09-14T17:23:37.376Z,78.30
2022-09-14T17:27:00.862Z,78.20
2022-09-14T17:30:24.699Z,78.20
2022-09-14T17:33:48.924Z,78.20
2022-09-14T17:37:12.489Z,78.00
2022-09-14T17:40:37.340Z,77.80
2022-09-14T17:44:03.897Z,77.50
2022-09-14T17:54:17.654Z,77.30
2022-09-14T17:57:42.584Z,77.20
2022-09-14T18:01:13.230Z,77.10
2022-09-14T18:14:50.162Z,77.30
2022-09-14T18:18:13.814Z,77.40
2022-09-14T18:28:26.292Z,77.60
2022-09-14T18:42:05.937Z,77.60
2022-09-14T18:48:57.576Z,77.80
2022-09-14T18:59:14.224Z,77.60
2022-09-14T19:06:08.342Z,77.20
2022-09-14T19:19:44.435Z,77.40
2022-09-14T19:23:09.505Z,77.30
2022-09-14T19:26:43.910Z,77.30
2022-09-14T19:30:11.237Z,77.30
2022-09-14T19:40:24.502Z,76.70
2022-09-14T19:43:49.021Z,76.60
2022-09-14T19:47:12.723Z,76.40
2022-09-14T19:54:01.754Z,76.10
2022-09-14T20:00:55.045Z,76.20
2022-09-14T20:04:19.257Z,76.20
2022-09-14T20:11:08.175Z,76.20
2022-09-14T20:14:32.995Z,76.40
2022-09-14T20:17:57.499Z,76.40
2022-09-14T20:21:24.204Z,76.30
2022-09-14T20:24:47.848Z,76.40
2022-09-14T20:28:11.287Z,76.50
2022-09-14T20:35:00.473Z,76.70
2022-09-14T20:38:24.047Z,76.80
2022-09-14T20:41:48.039Z,76.90
2022-09-14T20:45:12.220Z,77.10
2022-09-14T20:48:37.360Z,77.00
2022-09-14T20:52:02.859Z,77.00
2022-09-14T20:58:54.556Z,77.10
2022-09-14T21:05:43.670Z,77.30
2022-09-14T21:19:24.229Z,77.10
2022-09-14T21:22:49.285Z,77.10
2022-09-14T21:26:14.014Z,77.20
2022-09-14T21:29:37.557Z,77.30
2022-09-14T21:36:28.829Z,77.70
2022-09-14T21:39:54.888Z,77.80
2022-09-14T21:43:18.338Z,77.80
2022-09-14T21:46:42.421Z,77.80
2022-09-14T21:50:07.626Z,77.80
2022-09-14T21:56:56.857Z,77.50
2022-09-14T22:00:21.017Z,77.40
2022-09-14T22:10:35.749Z,77.20
2022-09-14T22:14:03.978Z,77.10
2022-09-14T22:20:58.295Z,77.00
2022-09-14T22:24:24.868Z,77.00
2022-09-14T22:31:14.047Z,77.10
2022-09-14T22:38:02.755Z,77.30
2022-09-14T22:41:28.369Z,77.30
2022-09-14T22:48:17.279Z,77.50
2022-09-14T22:58:29.033Z,77.90
2022-09-14T23:05:19.647Z,78.10
2022-09-14T23:18:56.803Z,78.40
2022-09-14T23:22:22.055Z,78.40
2022-09-14T23:29:15.126Z,78.40
2022-09-14T23:32:38.529Z,78.50
2022-09-14T23:39:27.361Z,78.70
2022-09-14T23:42:51.348Z,79.00
2022-09-14T23:46:15.669Z,79.00
2022-09-14T23:49:39.152Z,79.00
2022-09-14T23:56:27.927Z,78.80
2022-09-14T23:59:51.560Z,78.90
